createdAt,value
2022-09-29T00:01:11.857Z,0.98
2022-09-29T00:03:38.961Z,1.09
2022-09-29T00:06:13.028Z,1.23
2022-09-29T00:08:39.637Z,1.24
2022-09-29T00:11:12.658Z,1.41
2022-09-29T00:13:39.856Z,1.38
2022-09-29T00:16:07.463Z,1.54
2022-09-29T00:18:35.217Z,1.48
2022-09-29T00:21:14.448Z,1.62
2022-09-29T00:23:41.164Z,1.91
2022-09-29T00:26:12.410Z,1.80
2022-09-29T00:28:42.066Z,2.04
2022-09-29T00:31:11.922Z,2.01
2022-09-29T00:33:39.446Z,2.09
2022-09-29T00:36:10.214Z,2.04
2022-09-29T00:38:37.216Z,2.28
2022-09-29T00:41:05.381Z,2.16
2022-09-29T00:43:53.695Z,2.44
2022-09-29T00:46:35.260Z,2.30
2022-09-29T00:49:27.572Z,2.23
2022-09-29T00:52:03.924Z,2.32
2022-09-29T00:54:39.128Z,2.24
2022-09-29T00:57:10.426Z,2.28
2022-09-29T00:59:59.839Z,2.35
2022-09-29T01:02:27.438Z,2.33
2022-09-29T01:04:55.767Z,2.22
2022-09-29T01:07:25.200Z,2.47
2022-09-29T01:09:56.865Z,2.11
2022-09-29T01:12:24.021Z,2.31
2022-09-29T01:14:53.675Z,2.23
2022-09-29T01:17:21.904Z,2.12
2022-09-29T01:20:10.617Z,2.15
2022-09-29T01:22:52.703Z,1.83
2022-09-29T01:25:56.996Z,1.57
2022-09-29T01:28:45.677Z,1.77
2022-09-29T01:31:28.874Z,1.88
2022-09-29T01:34:19.123Z,1.81
2022-09-29T01:37:12.986Z,1.42
2022-09-29T01:39:47.893Z,1.31
2022-09-29T01:42:24.123Z,1.87
2022-09-29T01:44:58.424Z,2.50
2022-09-29T01:47:40.661Z,2.35
2022-09-29T01:50:14.978Z,2.12
2022-09-29T01:52:54.499Z,1.80
2022-09-29T01:55:30.620Z,1.08
2022-09-29T01:58:09.045Z,0.77
2022-09-29T02:00:42.395Z,0.49
2022-09-29T02:03:20.866Z,0.43
2022-09-29T02:05:55.450Z,0.44
2022-09-29T02:08:46.924Z,0.41
2022-09-29T02:11:14.398Z,0.41
2022-09-29T02:13:49.782Z,0.28
2022-09-29T02:16:28.967Z,0.29
2022-09-29T02:19:07.678Z,0.38
2022-09-29T02:21:34.682Z,0.34
2022-09-29T02:24:01.463Z,0.26
2022-09-29T02:26:33.417Z,0.28
2022-09-29T02:29:02.901Z,0.62
2022-09-29T02:31:31.664Z,0.67
2022-09-29T02:33:59.002Z,0.63
2022-09-29T02:36:55.924Z,0.55
2022-09-29T02:39:50.563Z,0.86
2022-09-29T02:42:23.211Z,0.73
2022-09-29T02:45:03.036Z,0.62
2022-09-29T02:48:13.406Z,0.63
2022-09-29T02:51:10.668Z,0.69
2022-09-29T02:53:39.932Z,0.73
2022-09-29T02:56:12.178Z,0.47
2022-09-29T02:58:57.516Z,0.46
2022-09-29T03:01:24.558Z,0.43
2022-09-29T03:03:51.556Z,0.37
2022-09-29T03:06:19.567Z,0.41
2022-09-29T03:08:46.327Z,0.46
2022-09-29T03:11:13.157Z,0.44
2022-09-29T03:13:39.769Z,0.52
2022-09-29T03:16:06.403Z,0.47
2022-09-29T03:18:33.017Z,0.40
2022-09-29T03:20:59.596Z,0.45
2022-09-29T03:23:26.181Z,0.43
2022-09-29T03:25:52.891Z,0.46
2022-09-29T03:28:19.507Z,0.46
2022-09-29T03:30:46.182Z,0.44
2022-09-29T03:33:12.863Z,0.53
2022-09-29T03:35:43.731Z,0.47
2022-09-29T03:38:11.706Z,0.79
2022-09-29T03:40:38.560Z,1.18
2022-09-29T03:43:05.235Z,1.54
2022-09-29T03:45:31.900Z,1.67
2022-09-29T03:47:58.559Z,1.59
2022-09-29T03:50:28.190Z,1.44
2022-09-29T03:52:54.795Z,1.45
2022-09-29T03:55:21.462Z,1.46
2022-09-29T03:57:48.054Z,2.89
2022-09-29T04:00:15.394Z,15.64
2022-09-29T04:02:42.049Z,1.91
2022-09-29T04:05:08.805Z,1.52
2022-09-29T04:07:35.412Z,1.62
2022-09-29T04:10:02.002Z,1.72
2022-09-29T04:12:28.685Z,1.51
2022-09-29T04:14:55.279Z,1.09
2022-09-29T04:17:22.092Z,1.13
2022-09-29T04:19:48.698Z,1.00
2022-09-29T04:22:16.406Z,1.11
2022-09-29T04:24:42.984Z,0.88
2022-09-29T04:27:09.565Z,0.79
2022-09-29T04:29:36.152Z,0.90
2022-09-29T04:32:02.725Z,0.78
2022-09-29T04:34:29.315Z,0.82
2022-09-29T04:36:55.871Z,0.85
2022-09-29T04:39:22.497Z,0.89
2022-09-29T04:41:49.397Z,0.89
2022-09-29T04:44:15.990Z,1.03
2022-09-29T04:46:43.579Z,0.93
2022-09-29T04:49:10.172Z,0.99
2022-09-29T04:51:37.066Z,0.98
2022-09-29T04:54:03.745Z,1.21
2022-09-29T04:56:30.303Z,1.23
2022-09-29T04:58:58.285Z,1.20
2022-09-29T05:01:25.235Z,1.20
2022-09-29T05:03:52.116Z,1.52
2022-09-29T05:06:18.980Z,1.45
2022-09-29T05:08:45.653Z,1.52
2022-09-29T05:11:12.251Z,1.53
2022-09-29T05:13:38.870Z,1.62
2022-09-29T05:16:06.583Z,1.80
2022-09-29T05:18:34.146Z,1.99
2022-09-29T05:21:26.619Z,1.91
2022-09-29T05:23:52.910Z,1.95
2022-09-29T05:26:19.571Z,2.11
2022-09-29T05:28:48.126Z,1.93
2022-09-29T05:31:15.848Z,2.05
2022-09-29T05:33:42.488Z,2.44
2022-09-29T05:36:11.735Z,2.04
2022-09-29T05:38:39.761Z,2.13
2022-09-29T05:41:11.916Z,1.48
2022-09-29T05:43:41.282Z,1.15
2022-09-29T05:46:10.229Z,1.23
2022-09-29T05:48:37.666Z,1.69
2022-09-29T05:51:12.641Z,1.11
2022-09-29T05:53:40.528Z,0.76
2022-09-29T05:56:09.098Z,1.21
2022-09-29T05:58:37.025Z,2.22
2022-09-29T06:01:13.152Z,2.71
2022-09-29T06:03:42.695Z,2.66
2022-09-29T06:06:15.534Z,2.44
2022-09-29T06:08:42.994Z,2.29
2022-09-29T06:11:12.637Z,2.22
2022-09-29T06:13:48.682Z,2.42
2022-09-29T06:16:17.492Z,2.47
2022-09-29T06:18:44.186Z,2.40
2022-09-29T06:21:14.358Z,2.63
2022-09-29T06:23:41.592Z,2.84
2022-09-29T06:26:10.910Z,2.51
2022-09-29T06:28:38.522Z,2.55
2022-09-29T06:31:13.157Z,2.23
2022-09-29T06:33:39.829Z,2.61
2022-09-29T06:36:24.658Z,2.71
2022-09-29T06:38:51.467Z,2.88
2022-09-29T06:41:18.367Z,2.85
2022-09-29T06:43:45.029Z,2.56
2022-09-29T06:46:11.744Z,2.46
2022-09-29T06:48:38.393Z,2.32
2022-09-29T06:51:10.498Z,2.24
2022-09-29T06:53:39.100Z,2.27
2022-09-29T06:56:06.983Z,2.53
2022-09-29T06:58:33.636Z,2.52
2022-09-29T07:01:02.260Z,2.86
2022-09-29T07:03:30.015Z,2.60
2022-09-29T07:06:18.288Z,3.05
2022-09-29T07:08:43.218Z,3.24
2022-09-29T07:11:10.802Z,3.29
2022-09-29T07:13:38.518Z,2.93
2022-09-29T07:16:11.304Z,2.84
2022-09-29T07:18:40.924Z,2.33
2022-09-29T07:21:10.685Z,2.22
2022-09-29T07:23:39.353Z,1.94
2022-09-29T07:26:07.208Z,1.98
2022-09-29T07:28:35.211Z,1.73
2022-09-29T07:31:14.376Z,1.79
2022-09-29T07:33:42.626Z,1.88
2022-09-29T07:36:09.453Z,1.87
2022-09-29T07:38:36.094Z,1.78
2022-09-29T07:41:05.758Z,1.76
2022-09-29T07:43:32.648Z,1.86
2022-09-29T07:45:59.725Z,1.51
2022-09-29T07:48:31.371Z,1.60
2022-09-29T07:51:12.220Z,1.60
2022-09-29T07:53:39.846Z,1.41
2022-09-29T07:56:08.038Z,1.31
2022-09-29T07:58:35.811Z,0.51
2022-09-29T08:01:04.369Z,0.46
2022-09-29T08:03:31.054Z,0.36
2022-09-29T08:05:57.774Z,0.37
2022-09-29T08:08:24.815Z,0.38
2022-09-29T08:10:53.624Z,0.44
2022-09-29T08:13:21.020Z,0.46
2022-09-29T08:15:47.614Z,0.33
2022-09-29T08:18:14.369Z,0.29
2022-09-29T08:20:40.994Z,0.27
2022-09-29T08:23:07.590Z,0.31
2022-09-29T08:25:34.206Z,0.37
2022-09-29T08:28:01.135Z,0.34
2022-09-29T08:30:27.718Z,0.35
2022-09-29T08:32:55.134Z,0.40
2022-09-29T08:35:21.719Z,0.32
2022-09-29T08:37:48.444Z,0.34
2022-09-29T08:40:16.412Z,0.36
2022-09-29T08:42:48.997Z,0.49
2022-09-29T08:45:31.985Z,0.46
2022-09-29T08:48:22.164Z,0.56
2022-09-29T08:50:55.192Z,0.48
2022-09-29T08:53:28.815Z,0.45
2022-09-29T08:55:55.869Z,0.41
2022-09-29T08:58:22.629Z,0.55
2022-09-29T09:00:55.211Z,0.46
2022-09-29T09:04:00.592Z,0.61
2022-09-29T09:06:44.585Z,0.42
2022-09-29T09:09:29.108Z,0.34
2022-09-29T09:12:14.749Z,0.35
2022-09-29T09:15:16.273Z,0.40
2022-09-29T09:17:46.144Z,0.51
2022-09-29T09:20:41.669Z,0.41
2022-09-29T09:23:08.260Z,0.34
2022-09-29T09:25:40.748Z,0.39
2022-09-29T09:28:16.775Z,0.46
2022-09-29T09:30:53.029Z,0.41
2022-09-29T09:33:55.528Z,0.46
2022-09-29T09:36:36.103Z,0.67
2022-09-29T09:39:11.276Z,0.62
2022-09-29T09:41:42.290Z,0.44
2022-09-29T09:44:18.124Z,0.51
2022-09-29T09:47:10.589Z,0.61
2022-09-29T09:49:47.447Z,0.77
2022-09-29T09:52:44.322Z,0.79
2022-09-29T09:55:17.420Z,0.81
2022-09-29T09:57:58.989Z,0.62
2022-09-29T10:00:42.934Z,0.78
2022-09-29T10:03:11.221Z,0.62
2022-09-29T10:05:42.128Z,0.76
2022-09-29T10:08:22.386Z,0.61
2022-09-29T10:10:58.197Z,0.74
2022-09-29T10:13:29.432Z,0.68
2022-09-29T10:15:58.807Z,0.69
2022-09-29T10:18:41.819Z,0.67
2022-09-29T10:21:37.167Z,0.69
2022-09-29T10:24:05.172Z,0.57
2022-09-29T10:26:44.701Z,0.64
2022-09-29T10:29:38.575Z,0.60
2022-09-29T10:32:38.159Z,0.62
2022-09-29T10:35:28.654Z,0.72
2022-09-29T10:38:06.811Z,0.80
2022-09-29T10:40:34.017Z,0.71
2022-09-29T10:43:24.980Z,0.83
2022-09-29T10:45:51.661Z,0.59
2022-09-29T10:48:18.705Z,0.64
2022-09-29T10:50:51.174Z,0.52
2022-09-29T10:53:37.418Z,0.52
2022-09-29T10:56:23.574Z,0.51
2022-09-29T10:59:01.741Z,0.60
2022-09-29T11:01:43.648Z,0.54
2022-09-29T11:04:28.375Z,0.60
2022-09-29T11:06:57.366Z,0.71
2022-09-29T11:09:30.322Z,0.76
2022-09-29T11:12:02.332Z,0.71
2022-09-29T11:14:32.430Z,0.67
2022-09-29T11:17:01.977Z,0.67
2022-09-29T11:19:32.195Z,0.51
2022-09-29T11:22:36.448Z,0.50
2022-09-29T11:25:09.022Z,0.55
2022-09-29T11:27:52.352Z,0.49
2022-09-29T11:30:27.572Z,0.48
2022-09-29T11:33:03.190Z,0.42
2022-09-29T11:35:51.013Z,0.44
2022-09-29T11:38:38.849Z,0.50
2022-09-29T11:41:33.462Z,0.40
2022-09-29T11:44:18.840Z,0.40
2022-09-29T11:46:54.490Z,2.45
2022-09-29T11:49:24.096Z,2.05
2022-09-29T11:52:18.054Z,1.01
2022-09-29T11:55:19.077Z,0.41
2022-09-29T11:58:04.578Z,0.43
2022-09-29T12:00:31.120Z,0.51
2022-09-29T12:03:16.035Z,0.63
2022-09-29T12:06:00.656Z,0.47
2022-09-29T12:08:55.740Z,0.46
2022-09-29T12:11:51.022Z,0.61
2022-09-29T12:14:55.158Z,0.49
2022-09-29T12:17:27.964Z,0.51
2022-09-29T12:20:05.979Z,0.66
2022-09-29T12:22:36.911Z,0.71
2022-09-29T12:25:05.027Z,0.77
2022-09-29T12:27:42.458Z,0.67
2022-09-29T12:30:29.033Z,0.83
2022-09-29T12:33:07.636Z,0.89
2022-09-29T12:35:59.429Z,0.85
2022-09-29T12:38:40.328Z,0.83
2022-09-29T12:41:35.398Z,0.72
2022-09-29T12:44:25.487Z,0.76
2022-09-29T12:47:03.010Z,0.91
2022-09-29T12:49:50.167Z,0.92
2022-09-29T12:52:26.257Z,0.98
2022-09-29T12:55:04.683Z,0.99
2022-09-29T12:57:41.264Z,0.98
2022-09-29T13:00:16.278Z,0.81
2022-09-29T13:02:52.827Z,0.71
2022-09-29T13:05:48.304Z,0.72
2022-09-29T13:08:42.173Z,0.71
2022-09-29T13:11:36.587Z,0.78
2022-09-29T13:14:18.113Z,0.67
2022-09-29T13:16:57.174Z,0.91
2022-09-29T13:20:11.241Z,0.85
2022-09-29T13:23:04.744Z,0.91
2022-09-29T13:25:49.988Z,0.90
2022-09-29T13:28:33.410Z,1.19
2022-09-29T13:31:07.723Z,1.09
2022-09-29T13:33:35.310Z,0.88
2022-09-29T13:36:02.946Z,0.78
2022-09-29T13:38:35.989Z,0.84
2022-09-29T13:41:31.401Z,0.63
2022-09-29T13:43:57.940Z,0.56
2022-09-29T13:46:30.549Z,0.63
2022-09-29T13:49:03.345Z,0.60
2022-09-29T13:51:44.044Z,0.60
2022-09-29T13:54:27.872Z,0.64
2022-09-29T13:57:04.350Z,0.56
2022-09-29T13:59:31.902Z,0.62
2022-09-29T14:01:59.686Z,0.66
2022-09-29T14:04:52.149Z,0.63
2022-09-29T14:07:43.729Z,0.70
2022-09-29T14:10:38.813Z,0.62
2022-09-29T14:13:20.946Z,0.69
2022-09-29T14:16:01.536Z,0.55
2022-09-29T14:18:38.364Z,0.59
2022-09-29T14:21:10.593Z,0.67
2022-09-29T14:23:46.154Z,0.55
2022-09-29T14:26:46.935Z,0.50
2022-09-29T14:29:27.355Z,0.90
2022-09-29T14:31:58.363Z,1.78
2022-09-29T14:34:31.733Z,1.01
2022-09-29T14:37:00.902Z,0.73
2022-09-29T14:39:28.045Z,0.81
2022-09-29T14:41:56.031Z,0.92
2022-09-29T14:44:35.962Z,0.82
2022-09-29T14:47:31.367Z,0.72
2022-09-29T14:50:39.759Z,0.73
2022-09-29T14:53:06.290Z,0.69
2022-09-29T14:56:04.020Z,0.70
2022-09-29T14:58:48.589Z,0.67
2022-09-29T15:01:26.773Z,0.65
2022-09-29T15:04:15.149Z,0.76
2022-09-29T15:06:54.373Z,0.66
2022-09-29T15:09:26.681Z,0.68
2022-09-29T15:12:00.601Z,0.67
2022-09-29T15:14:35.171Z,0.62
2022-09-29T15:17:15.860Z,0.72
2022-09-29T15:19:54.554Z,0.67
2022-09-29T15:22:56.380Z,0.63
2022-09-29T15:25:33.820Z,1.25
2022-09-29T15:28:06.310Z,0.78
2022-09-29T15:30:33.313Z,0.68
2022-09-29T15:33:25.971Z,0.69
2022-09-29T15:35:58.706Z,0.56
2022-09-29T15:38:25.281Z,0.67
2022-09-29T15:41:04.395Z,0.86
2022-09-29T15:43:52.889Z,0.73
2022-09-29T15:46:23.616Z,0.82
2022-09-29T15:49:16.407Z,1.09
2022-09-29T15:51:54.080Z,0.95
2022-09-29T15:54:20.927Z,0.88
2022-09-29T15:56:48.146Z,1.10
2022-09-29T15:59:19.024Z,1.06
2022-09-29T16:01:46.280Z,0.99
2022-09-29T16:04:13.043Z,0.78
2022-09-29T16:06:44.407Z,0.77
2022-09-29T16:09:20.813Z,0.69
2022-09-29T16:11:47.654Z,0.69
2022-09-29T16:14:28.408Z,0.83
2022-09-29T16:16:58.764Z,2.03
2022-09-29T16:19:31.642Z,1.70
2022-09-29T16:22:05.130Z,1.25
2022-09-29T16:24:51.178Z,0.93
2022-09-29T16:27:56.968Z,0.84
2022-09-29T16:30:30.280Z,0.80
2022-09-29T16:33:11.990Z,0.95
2022-09-29T16:35:48.369Z,1.35
2022-09-29T16:38:19.017Z,1.18
2022-09-29T16:40:47.229Z,1.16
2022-09-29T16:43:26.086Z,1.52
2022-09-29T16:45:56.006Z,2.13
2022-09-29T16:48:28.143Z,4.47
2022-09-29T16:51:03.472Z,4.17
2022-09-29T16:53:34.088Z,1.60
2022-09-29T16:56:09.565Z,1.14
2022-09-29T16:58:36.819Z,2.02
2022-09-29T17:01:04.006Z,5.75
2022-09-29T17:03:30.618Z,3.32
2022-09-29T17:05:57.596Z,3.40
2022-09-29T17:08:27.607Z,1.81
2022-09-29T17:10:56.525Z,1.83
2022-09-29T17:13:33.794Z,1.45
2022-09-29T17:16:01.243Z,1.43
2022-09-29T17:18:28.095Z,1.47
2022-09-29T17:20:57.450Z,1.35
2022-09-29T17:23:24.046Z,1.78
2022-09-29T17:25:51.612Z,5.29
2022-09-29T17:28:21.549Z,5.72
2022-09-29T17:30:48.611Z,2.72
2022-09-29T17:33:17.185Z,2.15
2022-09-29T17:35:55.745Z,2.33
2022-09-29T17:38:23.553Z,2.94
2022-09-29T17:41:06.237Z,2.48
2022-09-29T17:43:33.070Z,1.97
2022-09-29T17:46:01.431Z,2.29
2022-09-29T17:48:29.589Z,2.61
2022-09-29T17:50:56.513Z,2.61
2022-09-29T17:53:24.623Z,1.77
2022-09-29T17:55:54.246Z,2.23
2022-09-29T17:58:21.264Z,2.60
2022-09-29T18:00:50.324Z,2.37
2022-09-29T18:03:18.940Z,1.87
2022-09-29T18:05:48.567Z,3.11
2022-09-29T18:08:17.845Z,1.65
2022-09-29T18:10:50.593Z,4.49
2022-09-29T18:13:17.349Z,24.06
2022-09-29T18:15:44.592Z,9.33
2022-09-29T18:18:14.411Z,9.36
2022-09-29T18:20:42.204Z,6.45
2022-09-29T18:23:08.819Z,2.73
2022-09-29T18:25:36.071Z,3.18
2022-09-29T18:28:02.982Z,2.65
2022-09-29T18:30:32.187Z,3.34
2022-09-29T18:33:02.569Z,1.75
2022-09-29T18:35:33.760Z,1.45
2022-09-29T18:38:01.576Z,1.58
2022-09-29T18:40:30.449Z,1.82
2022-09-29T18:42:57.959Z,1.83
2022-09-29T18:45:31.985Z,5.05
2022-09-29T18:48:02.063Z,6.93
2022-09-29T18:50:32.085Z,6.96
2022-09-29T18:52:59.324Z,6.91
2022-09-29T18:55:27.429Z,2.74
2022-09-29T18:57:56.107Z,1.84
2022-09-29T19:00:25.849Z,1.53
2022-09-29T19:02:52.622Z,3.06
2022-09-29T19:05:25.552Z,2.97
2022-09-29T19:07:55.095Z,5.41
2022-09-29T19:10:23.145Z,10.28
2022-09-29T19:12:49.762Z,2.47
2022-09-29T19:15:18.999Z,6.17
2022-09-29T19:17:47.038Z,8.65
2022-09-29T19:20:15.932Z,12.54
2022-09-29T19:22:43.855Z,3.09
2022-09-29T19:25:21.195Z,3.66
2022-09-29T19:27:47.849Z,4.49
2022-09-29T19:30:17.519Z,1.58
2022-09-29T19:32:44.160Z,2.56
2022-09-29T19:35:14.219Z,4.58
2022-09-29T19:37:41.440Z,5.99
2022-09-29T19:40:11.242Z,2.25
2022-09-29T19:42:37.893Z,2.24
2022-09-29T19:45:06.156Z,2.24
2022-09-29T19:47:35.128Z,2.31
2022-09-29T19:50:02.246Z,2.39
2022-09-29T19:52:29.022Z,2.97
2022-09-29T19:54:55.876Z,3.39
2022-09-29T19:57:22.819Z,3.78
2022-09-29T19:59:49.495Z,5.39
2022-09-29T20:02:16.108Z,4.11
2022-09-29T20:04:43.644Z,3.22
2022-09-29T20:07:10.607Z,3.67
2022-09-29T20:09:37.265Z,4.35
2022-09-29T20:12:03.955Z,3.96
2022-09-29T20:14:30.606Z,3.67
2022-09-29T20:17:00.296Z,3.22
2022-09-29T20:19:26.883Z,3.07
2022-09-29T20:21:53.984Z,3.02
2022-09-29T20:24:21.944Z,2.82
2022-09-29T20:26:50.582Z,2.26
2022-09-29T20:29:19.290Z,2.62
2022-09-29T20:31:47.398Z,2.77
2022-09-29T20:34:15.768Z,2.86
2022-09-29T20:36:42.485Z,2.38
2022-09-29T20:39:10.351Z,2.57
2022-09-29T20:41:37.292Z,2.40
2022-09-29T20:44:03.870Z,2.43
2022-09-29T20:46:30.819Z,2.21
2022-09-29T20:48:59.394Z,1.83
2022-09-29T20:51:26.844Z,1.87
2022-09-29T20:54:01.503Z,1.66
2022-09-29T20:56:33.212Z,1.40
2022-09-29T20:59:00.440Z,1.25
2022-09-29T21:01:30.297Z,1.41
2022-09-29T21:04:03.481Z,1.64
2022-09-29T21:06:32.954Z,1.30
2022-09-29T21:09:00.912Z,1.32
2022-09-29T21:11:27.979Z,1.44
2022-09-29T21:13:55.954Z,1.30
2022-09-29T21:16:24.502Z,1.10
2022-09-29T21:18:53.398Z,1.07
2022-09-29T21:21:20.058Z,0.98
2022-09-29T21:23:46.757Z,0.96
2022-09-29T21:26:16.332Z,0.82
2022-09-29T21:28:49.214Z,1.03
2022-09-29T21:31:18.104Z,1.04
2022-09-29T21:33:49.863Z,1.00
2022-09-29T21:36:16.512Z,0.94
2022-09-29T21:38:45.174Z,1.11
2022-09-29T21:41:25.978Z,0.91
2022-09-29T21:43:57.823Z,1.10
2022-09-29T21:46:27.799Z,0.97
2022-09-29T21:49:00.299Z,1.02
2022-09-29T21:51:33.376Z,0.92
2022-09-29T21:54:01.274Z,0.88
2022-09-29T21:56:31.434Z,1.00
2022-09-29T21:58:58.461Z,0.92
2022-09-29T22:01:26.379Z,0.91
2022-09-29T22:03:55.471Z,0.99
2022-09-29T22:06:28.039Z,1.12
2022-09-29T22:08:55.835Z,1.15
2022-09-29T22:11:29.093Z,1.32
2022-09-29T22:13:58.828Z,1.34
2022-09-29T22:16:29.355Z,1.40
2022-09-29T22:19:21.324Z,1.32
2022-09-29T22:21:45.644Z,1.26
2022-09-29T22:24:12.732Z,0.96
2022-09-29T22:26:41.010Z,1.03
2022-09-29T22:29:08.002Z,0.97
2022-09-29T22:31:35.206Z,0.98
2022-09-29T22:34:03.932Z,0.94
2022-09-29T22:36:33.294Z,0.81
2022-09-29T22:39:01.097Z,0.92
2022-09-29T22:41:27.936Z,0.91
2022-09-29T22:43:57.336Z,0.74
2022-09-29T22:46:26.679Z,0.95
2022-09-29T22:48:53.938Z,0.90
2022-09-29T22:51:20.788Z,1.01
2022-09-29T22:53:47.479Z,0.91
2022-09-29T22:56:19.481Z,0.94
2022-09-29T22:58:46.416Z,0.96
2022-09-29T23:01:15.570Z,0.91
2022-09-29T23:03:44.994Z,0.92
2022-09-29T23:06:12.954Z,0.89
2022-09-29T23:08:40.864Z,0.72
2022-09-29T23:11:13.718Z,0.79
2022-09-29T23:13:40.827Z,0.80
2022-09-29T23:16:12.442Z,0.75
2022-09-29T23:18:41.122Z,0.93
2022-09-29T23:21:07.738Z,0.94
2022-09-29T23:23:34.363Z,0.92
2022-09-29T23:26:01.626Z,1.05
2022-09-29T23:28:28.817Z,0.97
2022-09-29T23:30:55.542Z,0.83
2022-09-29T23:33:22.434Z,0.75
2022-09-29T23:35:50.146Z,0.86
2022-09-29T23:38:16.730Z,0.81
2022-09-29T23:40:43.429Z,0.82
2022-09-29T23:43:10.025Z,0.82
2022-09-29T23:45:36.602Z,1.01
2022-09-29T23:48:03.288Z,0.85
2022-09-29T23:50:30.397Z,0.86
2022-09-29T23:52:56.990Z,0.89
2022-09-29T23:55:23.831Z,0.84
2022-09-29T23:57:50.470Z,0.80
